createdAt,value
2018-04-10T00:01:56.769Z,18.05
2018-04-10T00:04:24.254Z,17.35
2018-04-10T00:06:51.684Z,18.12
2018-04-10T00:09:28.795Z,18.35
2018-04-10T00:11:56.227Z,17.67
2018-04-10T00:14:23.682Z,17.02
2018-04-10T00:16:51.134Z,16.67
2018-04-10T00:19:18.605Z,14.30
2018-04-10T00:21:46.061Z,17.53
2018-04-10T00:24:13.618Z,15.87
2018-04-10T00:26:41.083Z,18.75
2018-04-10T00:29:08.659Z,18.80
2018-04-10T00:31:36.111Z,17.50
2018-04-10T00:34:03.576Z,18.50
2018-04-10T00:36:31.139Z,18.90
2018-04-10T00:38:58.596Z,18.93
2018-04-10T00:41:26.036Z,17.77
2018-04-10T00:43:53.524Z,18.33
2018-04-10T00:46:20.956Z,18.20
2018-04-10T00:48:48.428Z,19.37
2018-04-10T00:51:17.014Z,19.47
2018-04-10T00:53:44.459Z,19.47
2018-04-10T00:56:11.910Z,19.20
2018-04-10T00:58:39.357Z,19.67
2018-04-10T01:01:06.927Z,19.73
2018-04-10T01:03:34.402Z,19.57
2018-04-10T01:06:01.856Z,20.77
2018-04-10T01:08:29.447Z,21.42
2018-04-10T01:10:56.885Z,20.02
2018-04-10T01:13:24.338Z,21.37
2018-04-10T01:15:51.787Z,21.33
2018-04-10T01:18:19.280Z,21.73
2018-04-10T01:20:46.732Z,22.40
2018-04-10T01:23:14.264Z,21.52
2018-04-10T01:25:41.709Z,22.00
2018-04-10T01:28:09.273Z,22.62
2018-04-10T01:30:36.731Z,22.20
2018-04-10T01:33:04.315Z,23.53
2018-04-10T01:35:32.085Z,22.67
2018-04-10T01:37:59.540Z,22.10
2018-04-10T01:40:26.997Z,22.07
2018-04-10T01:42:54.448Z,23.33
2018-04-10T01:45:21.923Z,22.30
2018-04-10T01:47:49.396Z,23.13
2018-04-10T01:50:16.830Z,22.87
2018-04-10T01:52:44.324Z,23.63
2018-04-10T01:55:11.779Z,22.47
2018-04-10T01:57:39.218Z,24.10
2018-04-10T02:00:06.662Z,22.33
2018-04-10T02:02:34.116Z,24.40
2018-04-10T02:05:01.545Z,23.45
2018-04-10T02:07:29.017Z,24.20
2018-04-10T02:10:13.991Z,23.63
2018-04-10T02:12:41.437Z,24.33
2018-04-10T02:15:08.900Z,23.63
2018-04-10T02:17:36.319Z,24.67
2018-04-10T02:20:23.630Z,23.93
2018-04-10T02:23:08.428Z,24.27
2018-04-10T02:25:47.349Z,23.60
2018-04-10T02:28:14.806Z,24.10
2018-04-10T02:30:47.891Z,24.53
2018-04-10T02:33:21.141Z,24.77
2018-04-10T02:35:54.569Z,25.80
2018-04-10T02:38:27.570Z,24.30
2018-04-10T02:41:00.050Z,24.43
2018-04-10T02:43:27.501Z,24.67
2018-04-10T02:45:55.921Z,25.07
2018-04-10T02:48:23.375Z,23.97
2018-04-10T02:50:50.903Z,25.63
2018-04-10T02:53:18.330Z,25.70
2018-04-10T02:55:45.780Z,24.83
2018-04-10T02:58:13.217Z,25.60
2018-04-10T03:00:40.701Z,27.30
2018-04-10T03:03:08.178Z,25.70
2018-04-10T03:05:35.621Z,26.10
2018-04-10T03:08:03.071Z,26.80
2018-04-10T03:10:30.521Z,26.67
2018-04-10T03:12:58.015Z,26.60
2018-04-10T03:15:25.441Z,26.47
2018-04-10T03:17:53.921Z,26.40
2018-04-10T03:20:21.999Z,27.30
2018-04-10T03:22:49.529Z,26.33
2018-04-10T03:25:16.988Z,26.60
2018-04-10T03:27:44.469Z,26.47
2018-04-10T03:30:11.935Z,28.37
2018-04-10T03:32:39.420Z,26.37
2018-04-10T03:35:06.881Z,27.37
2018-04-10T03:37:34.359Z,27.00
2018-04-10T03:40:06.791Z,27.77
2018-04-10T03:42:34.263Z,27.80
2018-04-10T03:45:01.717Z,27.53
2018-04-10T03:47:29.195Z,27.07
2018-04-10T03:49:56.629Z,28.43
2018-04-10T03:52:24.094Z,27.27
2018-04-10T03:54:51.541Z,28.47
2018-04-10T03:59:51.684Z,28.43
2018-04-10T04:02:19.135Z,29.00
2018-04-10T04:04:46.566Z,29.37
2018-04-10T04:07:14.033Z,27.50
2018-04-10T04:09:41.454Z,27.93
2018-04-10T04:12:08.894Z,27.83
2018-04-10T04:14:36.334Z,28.53
2018-04-10T04:17:15.681Z,29.13
2018-04-10T04:19:55.112Z,29.80
2018-04-10T04:22:34.326Z,29.17
2018-04-10T04:25:01.761Z,29.13
2018-04-10T04:27:29.252Z,30.70
2018-04-10T04:29:56.721Z,30.77
2018-04-10T04:32:24.148Z,30.57
2018-04-10T04:34:51.710Z,30.70
2018-04-10T04:37:19.194Z,30.60
2018-04-10T04:39:46.630Z,31.00
2018-04-10T04:42:14.126Z,31.00
2018-04-10T04:44:41.658Z,31.27
2018-04-10T04:47:09.088Z,32.90
2018-04-10T04:49:36.558Z,31.13
2018-04-10T04:52:04.125Z,32.37
2018-04-10T04:54:31.892Z,31.87
2018-04-10T04:56:59.400Z,33.03
2018-04-10T04:59:26.874Z,31.27
2018-04-10T05:01:54.896Z,31.93
2018-04-10T05:04:22.366Z,33.43
2018-04-10T05:06:49.834Z,32.40
2018-04-10T05:09:17.330Z,31.80
2018-04-10T05:11:44.852Z,31.23
2018-04-10T05:14:12.298Z,32.67
2018-04-10T05:16:39.940Z,31.93
2018-04-10T05:19:07.390Z,32.97
2018-04-10T05:21:34.871Z,32.67
2018-04-10T05:24:02.313Z,32.83
2018-04-10T05:26:29.818Z,33.37
2018-04-10T05:28:57.296Z,31.97
2018-04-10T05:31:24.766Z,31.37
2018-04-10T05:33:52.285Z,30.83
2018-04-10T05:36:19.881Z,33.37
2018-04-10T05:38:47.375Z,32.27
2018-04-10T05:41:14.947Z,31.17
2018-04-10T05:43:42.397Z,32.93
2018-04-10T05:46:09.858Z,32.40
2018-04-10T05:48:37.351Z,32.20
2018-04-10T05:51:04.814Z,34.10
2018-04-10T05:53:32.300Z,32.63
2018-04-10T05:55:59.763Z,31.57
2018-04-10T05:58:27.195Z,33.43
2018-04-10T06:00:54.673Z,33.90
2018-04-10T06:03:22.129Z,32.90
2018-04-10T06:05:49.599Z,33.33
2018-04-10T06:08:17.633Z,32.27
2018-04-10T06:10:45.093Z,32.93
2018-04-10T06:13:12.580Z,34.63
2018-04-10T06:15:40.023Z,34.20
2018-04-10T06:18:07.491Z,34.10
2018-04-10T06:20:34.980Z,33.53
2018-04-10T06:23:02.451Z,33.17
2018-04-10T06:25:29.941Z,33.30
2018-04-10T06:27:57.386Z,33.23
2018-04-10T06:30:24.820Z,31.70
2018-04-10T06:32:52.262Z,33.07
2018-04-10T06:35:19.800Z,31.87
2018-04-10T06:37:47.313Z,30.87
2018-04-10T06:40:14.839Z,32.60
2018-04-10T06:42:42.310Z,33.33
2018-04-10T06:45:09.965Z,32.97
2018-04-10T06:47:37.457Z,33.10
2018-04-10T06:50:04.971Z,33.57
2018-04-10T06:52:32.482Z,33.93
2018-04-10T06:55:00.009Z,38.10
2018-04-10T06:57:27.506Z,34.80
2018-04-10T06:59:56.026Z,34.73
2018-04-10T07:02:23.683Z,33.77
2018-04-10T07:04:51.155Z,33.30
2018-04-10T07:07:18.646Z,33.10
2018-04-10T07:09:46.176Z,34.50
2018-04-10T07:12:13.732Z,31.93
2018-04-10T07:14:41.210Z,33.00
2018-04-10T07:17:08.644Z,31.37
2018-04-10T07:19:36.157Z,34.33
2018-04-10T07:22:03.628Z,34.50
2018-04-10T07:24:31.119Z,32.83
2018-04-10T07:26:59.987Z,32.23
2018-04-10T07:29:32.468Z,32.87
2018-04-10T07:31:59.992Z,37.70
2018-04-10T07:34:27.490Z,36.83
2018-04-10T07:36:54.978Z,34.30
2018-04-10T07:39:22.464Z,34.10
2018-04-10T07:41:50.066Z,34.57
2018-04-10T07:44:17.634Z,35.47
2018-04-10T07:46:45.106Z,36.13
2018-04-10T07:49:12.657Z,35.40
2018-04-10T07:51:40.150Z,37.90
2018-04-10T07:54:07.623Z,36.37
2018-04-10T07:56:35.158Z,33.47
2018-04-10T07:59:02.636Z,36.93
2018-04-10T08:01:30.127Z,33.28
2018-04-10T08:03:57.637Z,36.47
2018-04-10T08:06:25.183Z,32.13
2018-04-10T08:08:52.660Z,37.00
2018-04-10T08:11:22.614Z,33.17
2018-04-10T08:13:52.734Z,36.40
2018-04-10T08:16:21.077Z,33.77
2018-04-10T08:18:49.564Z,38.20
2018-04-10T08:21:18.856Z,34.83
2018-04-10T08:23:48.041Z,39.10
2018-04-10T08:26:16.183Z,34.50
2018-04-10T08:28:43.739Z,39.87
2018-04-10T08:48:26.647Z,40.27
2018-04-10T08:50:54.203Z,40.35
2018-04-10T08:55:56.306Z,35.50
2018-04-10T08:58:23.825Z,41.30
2018-04-10T09:00:51.401Z,35.60
2018-04-10T09:03:18.882Z,41.77
2018-04-10T09:05:46.458Z,35.50
2018-04-10T09:08:13.930Z,44.05
2018-04-10T09:10:41.448Z,36.75
2018-04-10T09:13:08.998Z,40.25
2018-04-10T09:15:36.458Z,35.60
2018-04-10T09:18:03.900Z,41.42
2018-04-10T09:20:31.425Z,37.13
2018-04-10T09:22:58.882Z,41.88
2018-04-10T09:25:27.312Z,41.85
2018-04-10T09:27:54.783Z,34.72
2018-04-10T09:30:22.228Z,40.80
2018-04-10T09:32:49.700Z,35.85
2018-04-10T09:35:17.164Z,34.08
2018-04-10T09:37:44.689Z,40.63
2018-04-10T09:40:12.147Z,34.67
2018-04-10T09:42:39.681Z,35.45
2018-04-10T09:45:07.206Z,37.03
2018-04-10T09:47:34.724Z,32.00
2018-04-10T09:50:02.254Z,34.88
2018-04-10T09:52:29.748Z,32.10
2018-04-10T09:54:57.203Z,31.55
2018-04-10T09:57:24.733Z,31.37
2018-04-10T09:59:54.060Z,31.73
2018-04-10T10:02:22.085Z,30.08
2018-04-10T10:04:49.596Z,28.73
2018-04-10T10:07:17.089Z,27.08
2018-04-10T10:09:44.547Z,27.27
2018-04-10T10:12:12.074Z,24.37
2018-04-10T10:14:39.577Z,25.33
2018-04-10T10:17:07.033Z,22.62
2018-04-10T10:19:34.505Z,21.23
2018-04-10T10:22:01.974Z,23.55
2018-04-10T10:24:29.459Z,23.05
2018-04-10T10:26:56.923Z,23.62
2018-04-10T10:29:24.449Z,22.83
2018-04-10T10:31:51.907Z,23.60
2018-04-10T10:34:19.375Z,24.77
2018-04-10T10:36:46.826Z,24.00
2018-04-10T10:39:14.298Z,20.52
2018-04-10T10:41:41.788Z,20.73
2018-04-10T10:44:09.337Z,20.15
2018-04-10T10:46:36.826Z,16.70
2018-04-10T10:49:04.314Z,17.58
2018-04-10T10:51:31.773Z,16.62
2018-04-10T10:53:59.246Z,16.12
2018-04-10T10:56:26.740Z,15.80
2018-04-10T10:58:54.237Z,13.10
2018-04-10T11:01:21.701Z,13.05
2018-04-10T11:03:49.139Z,12.10
2018-04-10T11:06:16.615Z,11.40
2018-04-10T11:08:44.075Z,11.07
2018-04-10T11:11:11.573Z,10.65
2018-04-10T11:13:39.085Z,10.13
2018-04-10T11:16:06.562Z,9.27
2018-04-10T11:18:34.031Z,10.13
2018-04-10T11:21:01.469Z,9.77
2018-04-10T11:23:28.922Z,8.77
2018-04-10T11:25:56.402Z,8.82
2018-04-10T11:28:27.587Z,8.20
2018-04-10T11:30:55.352Z,6.78
2018-04-10T11:33:22.848Z,7.05
2018-04-10T11:35:50.363Z,7.18
2018-04-10T11:38:17.803Z,6.78
2018-04-10T11:40:45.280Z,7.70
2018-04-10T11:43:12.780Z,6.90
2018-04-10T11:45:40.260Z,6.47
2018-04-10T11:48:07.721Z,7.30
2018-04-10T11:50:35.179Z,6.97
2018-04-10T13:23:44.150Z,3.00
2018-04-10T13:26:11.676Z,2.60
2018-04-10T13:28:39.132Z,3.00
2018-04-10T13:31:06.602Z,3.28
2018-04-10T13:33:34.063Z,3.20
2018-04-10T13:36:01.531Z,2.90
2018-04-10T13:38:29.006Z,2.70
2018-04-10T13:40:56.513Z,3.35
2018-04-10T13:43:24.014Z,3.17
2018-04-10T13:45:51.476Z,2.90
2018-04-10T13:48:18.924Z,2.80
2018-04-10T13:50:46.365Z,2.80
2018-04-10T13:53:13.840Z,2.37
2018-04-10T13:55:41.281Z,2.55
2018-04-10T13:58:08.723Z,2.08
2018-04-10T14:00:36.202Z,3.15
2018-04-10T14:03:03.906Z,2.95
2018-04-10T14:05:31.374Z,2.20
2018-04-10T14:07:58.804Z,2.30
2018-04-10T14:10:26.304Z,2.12
2018-04-10T14:12:53.778Z,2.30
2018-04-10T14:15:21.228Z,2.05
2018-04-10T14:17:48.681Z,2.20
2018-04-10T14:20:16.217Z,2.60
2018-04-10T14:22:43.670Z,2.45
2018-04-10T14:25:11.121Z,2.70
2018-04-10T14:27:38.567Z,2.97
2018-04-10T14:30:06.045Z,2.12
2018-04-10T14:32:34.417Z,2.17
2018-04-10T14:35:02.090Z,2.22
2018-04-10T14:37:29.604Z,2.08
2018-04-10T14:39:57.220Z,2.78
2018-04-10T14:42:24.704Z,2.53
2018-04-10T14:44:52.118Z,2.60
2018-04-10T14:47:19.551Z,2.40
2018-04-10T14:49:46.985Z,2.37
2018-04-10T14:52:14.448Z,2.25
2018-04-10T14:54:41.917Z,2.30
2018-04-10T14:57:09.357Z,3.25
2018-04-10T14:59:37.641Z,2.95
2018-04-10T15:02:05.077Z,2.55
2018-04-10T15:04:32.589Z,2.67
2018-04-10T15:07:00.044Z,2.70
2018-04-10T15:09:27.476Z,2.10
2018-04-10T15:11:54.931Z,2.12
2018-04-10T15:14:22.375Z,2.35
2018-04-10T15:16:49.852Z,2.62
2018-04-10T15:19:17.344Z,2.22
2018-04-10T15:21:44.815Z,2.40
2018-04-10T15:24:12.316Z,2.15
2018-04-10T15:26:39.818Z,2.33
2018-04-10T15:29:07.271Z,2.20
2018-04-10T15:31:34.782Z,2.30
2018-04-10T15:34:02.248Z,2.17
2018-04-10T15:36:29.708Z,2.40
2018-04-10T15:38:57.176Z,2.08
2018-04-10T15:41:24.662Z,2.47
2018-04-10T15:43:52.138Z,2.62
2018-04-10T15:46:19.589Z,2.50
2018-04-10T15:48:47.097Z,2.30
2018-04-10T15:51:14.606Z,2.28
2018-04-10T15:53:42.161Z,2.75
2018-04-10T15:56:09.653Z,2.55
2018-04-10T15:58:37.147Z,2.28
2018-04-10T16:01:04.609Z,2.25
2018-04-10T16:03:32.097Z,2.25
2018-04-10T16:05:59.565Z,2.90
2018-04-10T16:08:27.022Z,2.37
2018-04-10T16:10:54.557Z,3.50
2018-04-10T16:13:22.042Z,2.53
2018-04-10T16:15:49.566Z,2.42
2018-04-10T16:18:17.108Z,2.70
2018-04-10T16:20:44.594Z,2.30
2018-04-10T16:23:12.168Z,1.85
2018-04-10T16:25:39.644Z,1.98
2018-04-10T16:28:07.185Z,2.12
2018-04-10T16:30:34.712Z,2.35
2018-04-10T16:33:02.283Z,2.70
2018-04-10T16:35:29.996Z,2.50
2018-04-10T16:37:57.600Z,2.58
2018-04-10T16:40:25.123Z,2.35
2018-04-10T16:42:52.736Z,2.28
2018-04-10T16:45:20.226Z,2.42
2018-04-10T16:47:48.011Z,2.10
2018-04-10T16:50:15.616Z,2.85
2018-04-10T16:52:43.124Z,3.08
2018-04-10T16:55:10.640Z,2.62
2018-04-10T16:57:38.140Z,3.45
2018-04-10T17:00:05.619Z,2.85
2018-04-10T17:02:33.101Z,2.60
2018-04-10T17:05:00.761Z,2.47
2018-04-10T17:07:28.477Z,2.37
2018-04-10T17:09:56.083Z,2.40
2018-04-10T17:12:23.947Z,2.60
2018-04-10T17:14:51.419Z,2.80
2018-04-10T17:17:19.860Z,2.72
2018-04-10T17:19:49.911Z,2.70
2018-04-10T17:22:17.903Z,2.70
2018-04-10T17:24:45.761Z,2.60
2018-04-10T17:27:13.217Z,2.58
2018-04-10T17:29:40.741Z,2.45
2018-04-10T17:32:08.255Z,2.42
2018-04-10T17:34:35.743Z,2.42
2018-04-10T17:37:03.203Z,3.25
2018-04-10T17:39:30.692Z,4.22
2018-04-10T17:41:58.223Z,3.53
2018-04-10T17:44:25.799Z,2.35
2018-04-10T17:46:53.463Z,2.40
2018-04-10T17:54:48.047Z,3.33
2018-04-10T17:57:15.607Z,2.72
2018-04-10T17:59:43.162Z,2.58
2018-04-10T18:02:10.657Z,2.50
2018-04-10T18:04:38.154Z,2.50
2018-04-10T18:07:05.627Z,2.45
2018-04-10T18:09:33.118Z,2.67
2018-04-10T18:12:00.608Z,2.40
2018-04-10T18:14:28.136Z,2.20
2018-04-10T18:16:55.730Z,3.55
2018-04-10T18:19:23.287Z,2.78
2018-04-10T18:21:50.807Z,2.70
2018-04-10T18:24:18.355Z,3.17
2018-04-10T18:26:45.947Z,3.05
2018-04-10T18:29:13.433Z,2.67
2018-04-10T18:31:40.935Z,2.47
2018-04-10T18:34:09.417Z,2.83
2018-04-10T18:36:37.013Z,2.40
2018-04-10T18:39:05.470Z,2.50
2018-04-10T18:53:08.421Z,3.15
2018-04-10T18:55:36.950Z,2.80
2018-04-10T18:58:04.489Z,2.53
2018-04-10T19:00:55.937Z,3.08
2018-04-10T19:03:23.991Z,2.97
2018-04-10T19:05:51.749Z,2.70
2018-04-10T19:08:19.515Z,3.03
2018-04-10T19:10:47.347Z,2.62
2018-04-10T19:13:19.071Z,3.80
2018-04-10T19:15:47.571Z,2.80
2018-04-10T19:18:15.440Z,3.08
2018-04-10T19:20:42.997Z,2.97
2018-04-10T19:23:10.516Z,3.05
2018-04-10T19:25:38.070Z,3.15
2018-04-10T19:28:06.610Z,3.00
2018-04-10T19:30:39.163Z,2.95
2018-04-10T19:33:07.235Z,3.05
2018-04-10T19:35:34.794Z,3.20
2018-04-10T19:38:02.276Z,2.58
2018-04-10T19:40:29.846Z,3.05
2018-04-10T19:42:57.355Z,2.95
2018-04-10T19:45:25.025Z,2.67
2018-04-10T19:47:52.559Z,3.17
2018-04-10T19:50:21.580Z,3.15
2018-04-10T19:52:49.171Z,3.35
2018-04-10T19:55:16.763Z,3.60
2018-04-10T19:57:44.309Z,2.87
2018-04-10T20:00:11.920Z,2.70
2018-04-10T20:02:40.279Z,3.00
2018-04-10T20:05:07.811Z,2.72
2018-04-10T20:07:35.383Z,3.00
2018-04-10T20:10:02.916Z,2.70
2018-04-10T20:12:30.432Z,3.17
2018-04-10T20:14:59.057Z,3.33
2018-04-10T20:17:26.671Z,2.95
2018-04-10T20:19:54.242Z,3.03
2018-04-10T20:22:21.783Z,3.22
2018-04-10T20:24:49.263Z,2.80
2018-04-10T20:27:16.864Z,3.10
2018-04-10T20:29:44.635Z,2.80
2018-04-10T20:32:13.111Z,2.95
2018-04-10T20:34:40.652Z,3.40
2018-04-10T20:37:08.145Z,3.03
2018-04-10T20:39:35.659Z,3.17
2018-04-10T20:42:03.186Z,3.10
2018-04-10T20:44:31.377Z,2.78
2018-04-10T20:46:59.036Z,2.70
2018-04-10T20:49:26.582Z,3.05
2018-04-10T20:51:54.149Z,3.10
2018-04-10T20:54:21.686Z,3.15
2018-04-10T20:56:49.278Z,3.30
2018-04-10T20:59:16.820Z,2.92
2018-04-10T21:01:44.532Z,3.20
2018-04-10T21:04:12.134Z,2.80
2018-04-10T21:06:39.868Z,2.87
2018-04-10T21:09:07.467Z,2.95
2018-04-10T21:11:40.013Z,3.47
2018-04-10T21:14:07.516Z,3.35
2018-04-10T21:16:37.811Z,3.40
2018-04-10T21:19:05.303Z,2.95
2018-04-10T21:21:42.475Z,3.22
2018-04-10T21:24:10.237Z,3.33
2018-04-10T21:26:38.507Z,3.67
2018-04-10T21:29:07.171Z,2.85
2018-04-10T21:31:34.709Z,3.50
2018-04-10T21:34:03.014Z,3.72
2018-04-10T21:36:30.519Z,2.80
2018-04-10T21:38:58.097Z,3.60
2018-04-10T21:41:25.569Z,2.90
2018-04-10T21:43:54.056Z,3.40
2018-04-10T21:46:21.535Z,3.17
2018-04-10T21:48:49.026Z,3.50
2018-04-10T21:51:16.504Z,3.00
2018-04-10T21:53:44.019Z,2.83
2018-04-10T21:56:11.504Z,3.70
2018-04-10T21:58:39.336Z,3.00
2018-04-10T22:01:06.982Z,3.50
2018-04-10T22:03:34.448Z,3.58
2018-04-10T22:06:01.970Z,3.28
2018-04-10T22:08:29.511Z,3.65
2018-04-10T22:10:57.050Z,3.10
2018-04-10T22:13:24.518Z,3.97
2018-04-10T22:15:52.087Z,3.85
2018-04-10T22:18:19.605Z,3.37
2018-04-10T22:20:47.089Z,3.83
2018-04-10T22:23:14.535Z,3.00
2018-04-10T22:25:43.696Z,3.37
2018-04-10T22:28:11.629Z,3.45
2018-04-10T22:30:39.059Z,3.85
2018-04-10T22:33:07.395Z,3.30
2018-04-10T22:35:34.847Z,4.03
2018-04-10T22:38:02.312Z,3.20
2018-04-10T22:40:29.813Z,3.47
2018-04-10T22:42:57.414Z,3.47
2018-04-10T22:45:24.888Z,3.10
2018-04-10T22:47:52.391Z,3.75
2018-04-10T22:50:19.856Z,3.42
2018-04-10T22:52:47.345Z,3.60
2018-04-10T22:55:14.883Z,3.50
2018-04-10T22:57:42.408Z,3.53
2018-04-10T23:00:09.874Z,4.07
2018-04-10T23:02:37.481Z,3.90
2018-04-10T23:05:05.037Z,4.18
2018-04-10T23:07:32.738Z,3.60
2018-04-10T23:10:00.193Z,4.60
2018-04-10T23:12:27.719Z,3.75
2018-04-10T23:14:55.193Z,3.12
2018-04-10T23:17:22.703Z,3.75
2018-04-10T23:19:50.167Z,3.28
2018-04-10T23:22:17.639Z,4.12
2018-04-10T23:24:45.089Z,3.80
2018-04-10T23:27:12.543Z,4.28
2018-04-10T23:29:40.011Z,3.85
2018-04-10T23:32:07.469Z,4.40
2018-04-10T23:34:34.920Z,3.42
2018-04-10T23:37:02.446Z,4.07
2018-04-10T23:39:29.867Z,4.22
2018-04-10T23:41:57.345Z,3.33
2018-04-10T23:44:24.799Z,4.25
2018-04-10T23:46:52.279Z,3.80
2018-04-10T23:49:19.741Z,4.20
2018-04-10T23:51:47.241Z,4.25
2018-04-10T23:54:14.731Z,4.15
2018-04-10T23:56:42.245Z,4.25
2018-04-10T23:59:09.678Z,4.25
